sensor_id;sensor_type;location;lat;lon;timestamp;P1;durP1;ratioP1;P2;durP2;ratioP2
74612;SDS011;63119;51.788;8.824;2023-04-01T00:01:20;3.43;;;0.70;;
74612;SDS011;63119;51.788;8.824;2023-04-01T00:03:45;0.60;;;0.60;;
74612;SDS011;63119;51.788;8.824;2023-04-01T00:06:14;3.05;;;0.40;;
74612;SDS011;63119;51.788;8.824;2023-04-01T00:08:42;1.15;;;0.40;;
74612;SDS011;63119;51.788;8.824;2023-04-01T00:11:07;1.52;;;0.80;;
74612;SDS011;63119;51.788;8.824;2023-04-01T00:13:32;2.10;;;0.60;;
74612;SDS011;63119;51.788;8.824;2023-04-01T00:15:58;1.47;;;0.50;;
74612;SDS011;63119;51.788;8.824;2023-04-01T00:18:23;1.93;;;0.50;;
74612;SDS011;63119;51.788;8.824;2023-04-01T00:20:49;0.93;;;0.40;;
74612;SDS011;63119;51.788;8.824;2023-04-01T00:23:16;1.95;;;0.60;;
74612;SDS011;63119;51.788;8.824;2023-04-01T00:25:42;2.85;;;0.68;;
74612;SDS011;63119;51.788;8.824;2023-04-01T00:28:08;4.13;;;0.63;;
74612;SDS011;63119;51.788;8.824;2023-04-01T00:30:33;2.60;;;0.40;;
74612;SDS011;63119;51.788;8.824;2023-04-01T00:33:00;1.38;;;0.50;;
74612;SDS011;63119;51.788;8.824;2023-04-01T00:35:26;1.25;;;0.50;;
74612;SDS011;63119;51.788;8.824;2023-04-01T00:37:51;1.50;;;0.60;;
74612;SDS011;63119;51.788;8.824;2023-04-01T00:40:24;2.70;;;0.40;;
74612;SDS011;63119;51.788;8.824;2023-04-01T00:42:50;1.60;;;0.32;;
74612;SDS011;63119;51.788;8.824;2023-04-01T00:45:26;2.05;;;0.45;;
74612;SDS011;63119;51.788;8.824;2023-04-01T00:47:58;0.75;;;0.30;;
74612;SDS011;63119;51.788;8.824;2023-04-01T00:50:26;1.90;;;0.40;;
74612;SDS011;63119;51.788;8.824;2023-04-01T00:52:53;1.77;;;0.32;;
74612;SDS011;63119;51.788;8.824;2023-04-01T00:55:19;2.30;;;0.40;;
74612;SDS011;63119;51.788;8.824;2023-04-01T00:57:47;0.95;;;0.43;;
74612;SDS011;63119;51.788;8.824;2023-04-01T01:00:14;1.00;;;0.30;;
74612;SDS011;63119;51.788;8.824;2023-04-01T01:02:41;1.05;;;0.50;;
74612;SDS011;63119;51.788;8.824;2023-04-01T01:05:08;0.93;;;0.28;;
74612;SDS011;63119;51.788;8.824;2023-04-01T01:10:17;1.60;;;0.47;;
74612;SDS011;63119;51.788;8.824;2023-04-01T01:15:32;1.02;;;0.30;;
74612;SDS011;63119;51.788;8.824;2023-04-01T01:27:11;0.47;;;0.22;;
74612;SDS011;63119;51.788;8.824;2023-04-01T01:29:55;1.38;;;0.30;;
74612;SDS011;63119;51.788;8.824;2023-04-01T01:35:22;1.10;;;0.20;;
74612;SDS011;63119;51.788;8.824;2023-04-01T01:37:54;1.17;;;0.28;;
74612;SDS011;63119;51.788;8.824;2023-04-01T01:40:27;1.55;;;0.40;;
74612;SDS011;63119;51.788;8.824;2023-04-01T01:42:55;1.98;;;0.30;;
74612;SDS011;63119;51.788;8.824;2023-04-01T01:45:23;2.10;;;0.40;;
74612;SDS011;63119;51.788;8.824;2023-04-01T01:50:17;0.55;;;0.30;;
74612;SDS011;63119;51.788;8.824;2023-04-01T01:52:44;1.77;;;0.60;;
74612;SDS011;63119;51.788;8.824;2023-04-01T01:55:26;0.43;;;0.20;;
74612;SDS011;63119;51.788;8.824;2023-04-01T01:58:14;1.13;;;0.30;;
74612;SDS011;63119;51.788;8.824;2023-04-01T02:00:46;0.57;;;0.10;;
74612;SDS011;63119;51.788;8.824;2023-04-01T02:03:16;0.93;;;0.30;;
74612;SDS011;63119;51.788;8.824;2023-04-01T02:05:44;0.17;;;0.17;;
74612;SDS011;63119;51.788;8.824;2023-04-01T02:08:12;2.33;;;0.43;;
74612;SDS011;63119;51.788;8.824;2023-04-01T02:10:42;3.20;;;0.50;;
74612;SDS011;63119;51.788;8.824;2023-04-01T02:13:16;2.25;;;0.20;;
74612;SDS011;63119;51.788;8.824;2023-04-01T02:15:52;1.77;;;0.30;;
74612;SDS011;63119;51.788;8.824;2023-04-01T02:18:23;1.75;;;0.25;;
74612;SDS011;63119;51.788;8.824;2023-04-01T02:20:49;1.05;;;0.30;;
74612;SDS011;63119;51.788;8.824;2023-04-01T02:23:16;1.45;;;0.30;;
74612;SDS011;63119;51.788;8.824;2023-04-01T02:25:41;2.27;;;0.60;;
74612;SDS011;63119;51.788;8.824;2023-04-01T02:28:08;0.60;;;0.20;;
74612;SDS011;63119;51.788;8.824;2023-04-01T02:30:35;0.55;;;0.17;;
74612;SDS011;63119;51.788;8.824;2023-04-01T02:33:03;1.10;;;0.40;;
74612;SDS011;63119;51.788;8.824;2023-04-01T02:35:32;1.48;;;0.60;;
74612;SDS011;63119;51.788;8.824;2023-04-01T02:38:00;0.75;;;0.40;;
74612;SDS011;63119;51.788;8.824;2023-04-01T02:40:26;0.90;;;0.22;;
74612;SDS011;63119;51.788;8.824;2023-04-01T02:42:51;0.30;;;0.30;;
74612;SDS011;63119;51.788;8.824;2023-04-01T02:45:16;0.35;;;0.20;;
74612;SDS011;63119;51.788;8.824;2023-04-01T02:47:42;0.40;;;0.20;;
74612;SDS011;63119;51.788;8.824;2023-04-01T02:50:07;0.83;;;0.20;;
74612;SDS011;63119;51.788;8.824;2023-04-01T02:52:33;2.03;;;0.40;;
74612;SDS011;63119;51.788;8.824;2023-04-01T02:54:58;0.28;;;0.20;;
74612;SDS011;63119;51.788;8.824;2023-04-01T02:57:24;2.03;;;0.40;;
74612;SDS011;63119;51.788;8.824;2023-04-01T02:59:50;1.15;;;0.35;;
74612;SDS011;63119;51.788;8.824;2023-04-01T03:02:16;1.60;;;0.30;;
74612;SDS011;63119;51.788;8.824;2023-04-01T03:04:41;0.43;;;0.20;;
74612;SDS011;63119;51.788;8.824;2023-04-01T03:07:07;0.87;;;0.40;;
74612;SDS011;63119;51.788;8.824;2023-04-01T03:09:34;0.88;;;0.20;;
74612;SDS011;63119;51.788;8.824;2023-04-01T03:12:00;0.52;;;0.20;;
74612;SDS011;63119;51.788;8.824;2023-04-01T03:14:25;0.30;;;0.17;;
74612;SDS011;63119;51.788;8.824;2023-04-01T03:16:50;0.77;;;0.20;;
74612;SDS011;63119;51.788;8.824;2023-04-01T03:19:16;1.43;;;0.40;;
74612;SDS011;63119;51.788;8.824;2023-04-01T03:21:41;0.93;;;0.30;;
74612;SDS011;63119;51.788;8.824;2023-04-01T03:24:06;0.53;;;0.20;;
74612;SDS011;63119;51.788;8.824;2023-04-01T03:26:32;0.38;;;0.20;;
74612;SDS011;63119;51.788;8.824;2023-04-01T03:28:58;0.60;;;0.20;;
74612;SDS011;63119;51.788;8.824;2023-04-01T03:31:23;0.90;;;0.27;;
74612;SDS011;63119;51.788;8.824;2023-04-01T03:33:48;0.40;;;0.30;;
74612;SDS011;63119;51.788;8.824;2023-04-01T03:36:14;0.65;;;0.17;;
74612;SDS011;63119;51.788;8.824;2023-04-01T03:38:40;0.38;;;0.30;;
74612;SDS011;63119;51.788;8.824;2023-04-01T03:41:06;0.85;;;0.40;;
74612;SDS011;63119;51.788;8.824;2023-04-01T03:43:32;0.90;;;0.20;;
74612;SDS011;63119;51.788;8.824;2023-04-01T03:45:58;0.20;;;0.20;;
74612;SDS011;63119;51.788;8.824;2023-04-01T03:48:23;0.73;;;0.30;;
74612;SDS011;63119;51.788;8.824;2023-04-01T03:50:50;0.40;;;0.22;;
74612;SDS011;63119;51.788;8.824;2023-04-01T03:53:16;2.67;;;0.22;;
74612;SDS011;63119;51.788;8.824;2023-04-01T03:55:41;0.20;;;0.20;;
74612;SDS011;63119;51.788;8.824;2023-04-01T03:58:07;1.07;;;0.30;;
74612;SDS011;63119;51.788;8.824;2023-04-01T04:00:33;0.43;;;0.20;;
74612;SDS011;63119;51.788;8.824;2023-04-01T04:02:58;0.85;;;0.20;;
74612;SDS011;63119;51.788;8.824;2023-04-01T04:05:24;1.83;;;0.30;;
74612;SDS011;63119;51.788;8.824;2023-04-01T04:07:50;0.28;;;0.20;;
74612;SDS011;63119;51.788;8.824;2023-04-01T04:10:16;0.20;;;0.17;;
74612;SDS011;63119;51.788;8.824;2023-04-01T04:12:42;0.52;;;0.20;;
74612;SDS011;63119;51.788;8.824;2023-04-01T04:15:07;0.22;;;0.15;;
74612;SDS011;63119;51.788;8.824;2023-04-01T04:17:33;0.50;;;0.20;;
74612;SDS011;63119;51.788;8.824;2023-04-01T04:19:58;0.83;;;0.20;;
74612;SDS011;63119;51.788;8.824;2023-04-01T04:22:24;0.30;;;0.20;;
74612;SDS011;63119;51.788;8.824;2023-04-01T04:24:49;0.63;;;0.27;;
74612;SDS011;63119;51.788;8.824;2023-04-01T04:27:14;0.30;;;0.10;;
74612;SDS011;63119;51.788;8.824;2023-04-01T04:29:39;0.57;;;0.20;;
74612;SDS011;63119;51.788;8.824;2023-04-01T04:32:05;0.77;;;0.30;;
74612;SDS011;63119;51.788;8.824;2023-04-01T04:34:30;0.20;;;0.10;;
74612;SDS011;63119;51.788;8.824;2023-04-01T04:36:56;0.60;;;0.32;;
74612;SDS011;63119;51.788;8.824;2023-04-01T04:39:21;0.20;;;0.20;;
74612;SDS011;63119;51.788;8.824;2023-04-01T04:41:46;1.00;;;0.30;;
74612;SDS011;63119;51.788;8.824;2023-04-01T04:44:12;0.67;;;0.40;;
74612;SDS011;63119;51.788;8.824;2023-04-01T04:46:37;0.30;;;0.20;;
74612;SDS011;63119;51.788;8.824;2023-04-01T04:49:04;0.40;;;0.15;;
74612;SDS011;63119;51.788;8.824;2023-04-01T04:51:29;0.43;;;0.20;;
74612;SDS011;63119;51.788;8.824;2023-04-01T04:53:55;0.83;;;0.20;;
74612;SDS011;63119;51.788;8.824;2023-04-01T04:56:20;3.00;;;0.30;;
74612;SDS011;63119;51.788;8.824;2023-04-01T04:58:47;1.50;;;0.15;;
74612;SDS011;63119;51.788;8.824;2023-04-01T05:01:14;0.68;;;0.20;;
74612;SDS011;63119;51.788;8.824;2023-04-01T05:03:41;1.48;;;0.10;;
74612;SDS011;63119;51.788;8.824;2023-04-01T05:06:07;0.15;;;0.10;;
74612;SDS011;63119;51.788;8.824;2023-04-01T05:08:34;1.17;;;0.28;;
74612;SDS011;63119;51.788;8.824;2023-04-01T05:10:59;0.40;;;0.20;;
74612;SDS011;63119;51.788;8.824;2023-04-01T05:13:26;1.38;;;0.20;;
74612;SDS011;63119;51.788;8.824;2023-04-01T05:15:51;0.45;;;0.25;;
74612;SDS011;63119;51.788;8.824;2023-04-01T05:18:17;0.40;;;0.10;;
74612;SDS011;63119;51.788;8.824;2023-04-01T05:20:49;0.45;;;0.13;;
74612;SDS011;63119;51.788;8.824;2023-04-01T05:25:42;1.45;;;0.30;;
74612;SDS011;63119;51.788;8.824;2023-04-01T05:28:07;0.15;;;0.15;;
74612;SDS011;63119;51.788;8.824;2023-04-01T05:30:33;0.40;;;0.20;;
74612;SDS011;63119;51.788;8.824;2023-04-01T05:32:58;0.60;;;0.17;;
74612;SDS011;63119;51.788;8.824;2023-04-01T05:35:23;0.20;;;0.20;;
74612;SDS011;63119;51.788;8.824;2023-04-01T05:37:49;1.60;;;0.13;;
74612;SDS011;63119;51.788;8.824;2023-04-01T05:40:15;1.30;;;0.33;;
74612;SDS011;63119;51.788;8.824;2023-04-01T05:42:41;0.00;;;0.00;;
74612;SDS011;63119;51.788;8.824;2023-04-01T05:45:06;0.37;;;0.20;;
74612;SDS011;63119;51.788;8.824;2023-04-01T05:47:32;0.25;;;0.20;;
74612;SDS011;63119;51.788;8.824;2023-04-01T05:49:58;0.40;;;0.20;;
74612;SDS011;63119;51.788;8.824;2023-04-01T05:52:23;0.10;;;0.00;;
74612;SDS011;63119;51.788;8.824;2023-04-01T05:54:48;0.40;;;0.10;;
74612;SDS011;63119;51.788;8.824;2023-04-01T05:57:14;1.03;;;0.20;;
74612;SDS011;63119;51.788;8.824;2023-04-01T05:59:39;0.10;;;0.10;;
74612;SDS011;63119;51.788;8.824;2023-04-01T06:02:04;0.67;;;0.30;;
74612;SDS011;63119;51.788;8.824;2023-04-01T06:04:34;0.50;;;0.20;;
74612;SDS011;63119;51.788;8.824;2023-04-01T06:16:44;0.35;;;0.20;;
74612;SDS011;63119;51.788;8.824;2023-04-01T06:19:24;1.15;;;0.47;;
74612;SDS011;63119;51.788;8.824;2023-04-01T06:22:06;0.38;;;0.20;;
74612;SDS011;63119;51.788;8.824;2023-04-01T06:30:27;0.30;;;0.30;;
74612;SDS011;63119;51.788;8.824;2023-04-01T06:33:25;0.70;;;0.32;;
74612;SDS011;63119;51.788;8.824;2023-04-01T06:44:33;3.17;;;0.30;;
74612;SDS011;63119;51.788;8.824;2023-04-01T06:55:17;0.68;;;0.40;;
74612;SDS011;63119;51.788;8.824;2023-04-01T06:57:52;0.40;;;0.40;;
74612;SDS011;63119;51.788;8.824;2023-04-01T07:00:25;1.77;;;0.50;;
74612;SDS011;63119;51.788;8.824;2023-04-01T07:02:54;0.75;;;0.50;;
74612;SDS011;63119;51.788;8.824;2023-04-01T07:05:30;1.77;;;0.80;;
74612;SDS011;63119;51.788;8.824;2023-04-01T07:07:57;1.42;;;0.55;;
74612;SDS011;63119;51.788;8.824;2023-04-01T07:13:02;1.08;;;0.40;;
74612;SDS011;63119;51.788;8.824;2023-04-01T07:15:36;0.93;;;0.32;;
74612;SDS011;63119;51.788;8.824;2023-04-01T07:18:09;1.52;;;0.55;;
74612;SDS011;63119;51.788;8.824;2023-04-01T07:20:41;1.67;;;0.50;;
74612;SDS011;63119;51.788;8.824;2023-04-01T07:23:10;0.73;;;0.40;;
74612;SDS011;63119;51.788;8.824;2023-04-01T07:25:43;0.57;;;0.47;;
74612;SDS011;63119;51.788;8.824;2023-04-01T07:28:13;1.20;;;0.40;;
74612;SDS011;63119;51.788;8.824;2023-04-01T07:41:45;1.20;;;0.40;;
74612;SDS011;63119;51.788;8.824;2023-04-01T07:44:25;0.63;;;0.40;;
74612;SDS011;63119;51.788;8.824;2023-04-01T07:52:44;0.68;;;0.50;;
74612;SDS011;63119;51.788;8.824;2023-04-01T07:55:24;0.80;;;0.50;;
74612;SDS011;63119;51.788;8.824;2023-04-01T08:06:39;1.55;;;0.80;;
74612;SDS011;63119;51.788;8.824;2023-04-01T08:09:14;1.75;;;0.60;;
74612;SDS011;63119;51.788;8.824;2023-04-01T08:12:02;2.00;;;0.70;;
74612;SDS011;63119;51.788;8.824;2023-04-01T08:20:28;0.98;;;0.68;;
74612;SDS011;63119;51.788;8.824;2023-04-01T08:25:39;1.38;;;0.80;;
74612;SDS011;63119;51.788;8.824;2023-04-01T08:28:11;3.33;;;1.75;;
74612;SDS011;63119;51.788;8.824;2023-04-01T08:33:58;0.90;;;0.50;;
74612;SDS011;63119;51.788;8.824;2023-04-01T08:36:34;1.10;;;0.60;;
74612;SDS011;63119;51.788;8.824;2023-04-01T08:39:04;1.80;;;1.10;;
74612;SDS011;63119;51.788;8.824;2023-04-01T08:44:47;1.20;;;0.80;;
74612;SDS011;63119;51.788;8.824;2023-04-01T08:50:29;0.90;;;0.73;;
74612;SDS011;63119;51.788;8.824;2023-04-01T08:53:15;1.55;;;0.80;;
74612;SDS011;63119;51.788;8.824;2023-04-01T09:07:18;1.90;;;1.52;;
74612;SDS011;63119;51.788;8.824;2023-04-01T09:12:46;1.73;;;1.45;;
74612;SDS011;63119;51.788;8.824;2023-04-01T09:18:24;3.13;;;1.85;;
74612;SDS011;63119;51.788;8.824;2023-04-01T09:20:56;4.07;;;2.50;;
74612;SDS011;63119;51.788;8.824;2023-04-01T09:31:44;1.13;;;0.57;;
74612;SDS011;63119;51.788;8.824;2023-04-01T09:34:20;0.77;;;0.40;;
74612;SDS011;63119;51.788;8.824;2023-04-01T09:37:07;0.52;;;0.40;;
74612;SDS011;63119;51.788;8.824;2023-04-01T09:39:56;1.25;;;0.50;;
74612;SDS011;63119;51.788;8.824;2023-04-01T09:42:42;0.52;;;0.40;;
74612;SDS011;63119;51.788;8.824;2023-04-01T09:51:24;1.38;;;0.70;;
74612;SDS011;63119;51.788;8.824;2023-04-01T09:54:01;0.73;;;0.50;;
74612;SDS011;63119;51.788;8.824;2023-04-01T10:02:36;0.88;;;0.60;;
74612;SDS011;63119;51.788;8.824;2023-04-01T10:14:03;1.15;;;0.70;;
74612;SDS011;63119;51.788;8.824;2023-04-01T10:16:40;0.47;;;0.40;;
74612;SDS011;63119;51.788;8.824;2023-04-01T10:25:38;1.23;;;0.82;;
74612;SDS011;63119;51.788;8.824;2023-04-01T10:28:20;1.17;;;0.70;;
74612;SDS011;63119;51.788;8.824;2023-04-01T10:36:54;3.42;;;0.82;;
74612;SDS011;63119;51.788;8.824;2023-04-01T10:45:21;2.10;;;1.08;;
74612;SDS011;63119;51.788;8.824;2023-04-01T10:51:19;1.48;;;0.63;;
74612;SDS011;63119;51.788;8.824;2023-04-01T11:02:50;1.73;;;0.82;;
74612;SDS011;63119;51.788;8.824;2023-04-01T11:14:21;2.78;;;1.65;;
74612;SDS011;63119;51.788;8.824;2023-04-01T11:20:10;1.27;;;0.70;;
74612;SDS011;63119;51.788;8.824;2023-04-01T11:28:37;0.77;;;0.60;;
74612;SDS011;63119;51.788;8.824;2023-04-01T11:43:08;0.68;;;0.50;;
74612;SDS011;63119;51.788;8.824;2023-04-01T11:48:43;3.67;;;0.63;;
74612;SDS011;63119;51.788;8.824;2023-04-01T11:51:34;1.42;;;0.80;;
74612;SDS011;63119;51.788;8.824;2023-04-01T11:54:17;1.77;;;0.80;;
74612;SDS011;63119;51.788;8.824;2023-04-01T11:57:03;1.60;;;0.93;;
74612;SDS011;63119;51.788;8.824;2023-04-01T11:59:41;1.63;;;1.00;;
74612;SDS011;63119;51.788;8.824;2023-04-01T12:02:23;1.40;;;0.80;;
74612;SDS011;63119;51.788;8.824;2023-04-01T12:04:58;1.35;;;0.75;;
74612;SDS011;63119;51.788;8.824;2023-04-01T12:07:53;1.10;;;0.80;;
74612;SDS011;63119;51.788;8.824;2023-04-01T12:10:33;1.13;;;0.80;;
74612;SDS011;63119;51.788;8.824;2023-04-01T12:13:21;0.90;;;0.70;;
74612;SDS011;63119;51.788;8.824;2023-04-01T12:16:02;0.75;;;0.70;;
74612;SDS011;63119;51.788;8.824;2023-04-01T12:18:46;1.90;;;0.85;;
74612;SDS011;63119;51.788;8.824;2023-04-01T12:21:32;2.30;;;0.77;;
74612;SDS011;63119;51.788;8.824;2023-04-01T12:29:52;0.65;;;0.50;;
74612;SDS011;63119;51.788;8.824;2023-04-01T12:37:54;0.57;;;0.40;;
74612;SDS011;63119;51.788;8.824;2023-04-01T12:42:59;0.80;;;0.57;;
74612;SDS011;63119;51.788;8.824;2023-04-01T12:45:53;1.30;;;0.70;;
74612;SDS011;63119;51.788;8.824;2023-04-01T12:48:50;1.70;;;0.77;;
74612;SDS011;63119;51.788;8.824;2023-04-01T12:56:56;2.28;;;1.10;;
74612;SDS011;63119;51.788;8.824;2023-04-01T12:59:52;3.42;;;1.20;;
74612;SDS011;63119;51.788;8.824;2023-04-01T13:02:31;1.42;;;0.90;;
74612;SDS011;63119;51.788;8.824;2023-04-01T13:05:34;1.98;;;1.08;;
74612;SDS011;63119;51.788;8.824;2023-04-01T13:17:01;1.58;;;1.10;;
74612;SDS011;63119;51.788;8.824;2023-04-01T13:19:40;2.17;;;0.80;;
74612;SDS011;63119;51.788;8.824;2023-04-01T13:22:20;2.17;;;0.80;;
74612;SDS011;63119;51.788;8.824;2023-04-01T13:24:56;2.35;;;0.90;;
74612;SDS011;63119;51.788;8.824;2023-04-01T13:27:34;1.58;;;0.88;;
74612;SDS011;63119;51.788;8.824;2023-04-01T13:30:08;1.05;;;0.80;;
74612;SDS011;63119;51.788;8.824;2023-04-01T13:32:55;1.52;;;0.90;;
74612;SDS011;63119;51.788;8.824;2023-04-01T13:44:21;2.33;;;1.30;;
74612;SDS011;63119;51.788;8.824;2023-04-01T13:47:08;2.17;;;1.38;;
74612;SDS011;63119;51.788;8.824;2023-04-01T13:52:57;3.30;;;1.42;;
74612;SDS011;63119;51.788;8.824;2023-04-01T13:58:53;3.08;;;1.90;;
74612;SDS011;63119;51.788;8.824;2023-04-01T14:09:59;2.75;;;1.80;;
74612;SDS011;63119;51.788;8.824;2023-04-01T14:12:38;2.20;;;1.50;;
74612;SDS011;63119;51.788;8.824;2023-04-01T14:21:38;2.17;;;1.33;;
74612;SDS011;63119;51.788;8.824;2023-04-01T14:24:13;2.88;;;1.65;;
74612;SDS011;63119;51.788;8.824;2023-04-01T14:32:40;2.50;;;1.35;;
74612;SDS011;63119;51.788;8.824;2023-04-01T14:35:22;2.22;;;1.50;;
74612;SDS011;63119;51.788;8.824;2023-04-01T14:43:44;3.38;;;1.98;;
74612;SDS011;63119;51.788;8.824;2023-04-01T14:46:27;4.50;;;3.30;;
74612;SDS011;63119;51.788;8.824;2023-04-01T14:49:04;3.58;;;2.20;;
74612;SDS011;63119;51.788;8.824;2023-04-01T14:51:41;2.90;;;1.90;;
74612;SDS011;63119;51.788;8.824;2023-04-01T14:54:16;2.42;;;1.50;;
74612;SDS011;63119;51.788;8.824;2023-04-01T14:56:51;5.40;;;2.00;;
74612;SDS011;63119;51.788;8.824;2023-04-01T14:59:34;3.22;;;1.85;;
74612;SDS011;63119;51.788;8.824;2023-04-01T15:10:47;1.85;;;1.45;;
74612;SDS011;63119;51.788;8.824;2023-04-01T15:13:22;3.22;;;1.98;;
74612;SDS011;63119;51.788;8.824;2023-04-01T15:24:20;2.30;;;1.50;;
74612;SDS011;63119;51.788;8.824;2023-04-01T15:29:42;2.35;;;1.60;;
74612;SDS011;63119;51.788;8.824;2023-04-01T15:32:17;2.33;;;1.65;;
74612;SDS011;63119;51.788;8.824;2023-04-01T15:35:03;2.72;;;1.75;;
74612;SDS011;63119;51.788;8.824;2023-04-01T15:37:48;5.80;;;2.28;;
74612;SDS011;63119;51.788;8.824;2023-04-01T15:42:53;3.08;;;1.85;;
74612;SDS011;63119;51.788;8.824;2023-04-01T15:59:19;1.65;;;1.10;;
74612;SDS011;63119;51.788;8.824;2023-04-01T16:11:04;2.58;;;1.40;;
74612;SDS011;63119;51.788;8.824;2023-04-01T16:13:53;2.40;;;1.60;;
74612;SDS011;63119;51.788;8.824;2023-04-01T16:29:55;3.00;;;2.20;;
74612;SDS011;63119;51.788;8.824;2023-04-01T16:35:45;3.10;;;1.90;;
74612;SDS011;63119;51.788;8.824;2023-04-01T16:38:03;8.88;;;5.05;;
74612;SDS011;63119;51.788;8.824;2023-04-01T16:40:43;5.82;;;3.38;;
74612;SDS011;63119;51.788;8.824;2023-04-01T16:43:30;16.67;;;6.97;;
74612;SDS011;63119;51.788;8.824;2023-04-01T16:51:48;6.25;;;4.57;;
74612;SDS011;63119;51.788;8.824;2023-04-01T16:54:30;5.95;;;4.05;;
74612;SDS011;63119;51.788;8.824;2023-04-01T17:04:47;3.95;;;2.55;;
74612;SDS011;63119;51.788;8.824;2023-04-01T17:13:01;3.35;;;2.45;;
74612;SDS011;63119;51.788;8.824;2023-04-01T17:18:08;4.35;;;2.20;;
74612;SDS011;63119;51.788;8.824;2023-04-01T17:20:49;3.67;;;2.78;;
74612;SDS011;63119;51.788;8.824;2023-04-01T17:23:36;4.55;;;3.28;;
74612;SDS011;63119;51.788;8.824;2023-04-01T17:31:45;5.43;;;4.32;;
74612;SDS011;63119;51.788;8.824;2023-04-01T17:34:27;5.35;;;3.40;;
74612;SDS011;63119;51.788;8.824;2023-04-01T17:39:57;4.15;;;2.00;;
74612;SDS011;63119;51.788;8.824;2023-04-01T17:42:40;2.97;;;2.35;;
74612;SDS011;63119;51.788;8.824;2023-04-01T17:45:20;3.55;;;3.08;;
74612;SDS011;63119;51.788;8.824;2023-04-01T17:47:58;3.83;;;2.67;;
74612;SDS011;63119;51.788;8.824;2023-04-01T17:53:24;2.25;;;1.70;;
74612;SDS011;63119;51.788;8.824;2023-04-01T17:56:05;12.48;;;5.07;;
74612;SDS011;63119;51.788;8.824;2023-04-01T18:15:40;2.25;;;1.27;;
74612;SDS011;63119;51.788;8.824;2023-04-01T18:23:46;1.65;;;1.20;;
74612;SDS011;63119;51.788;8.824;2023-04-01T18:31:43;3.08;;;0.93;;
74612;SDS011;63119;51.788;8.824;2023-04-01T18:34:15;4.90;;;1.70;;
74612;SDS011;63119;51.788;8.824;2023-04-01T18:36:51;6.82;;;3.08;;
74612;SDS011;63119;51.788;8.824;2023-04-01T18:39:32;1.80;;;1.20;;
74612;SDS011;63119;51.788;8.824;2023-04-01T18:42:06;2.20;;;1.30;;
74612;SDS011;63119;51.788;8.824;2023-04-01T18:44:51;2.88;;;1.63;;
74612;SDS011;63119;51.788;8.824;2023-04-01T18:50:24;3.85;;;1.70;;
74612;SDS011;63119;51.788;8.824;2023-04-01T18:52:58;2.97;;;1.27;;
74612;SDS011;63119;51.788;8.824;2023-04-01T18:55:42;1.95;;;1.10;;
74612;SDS011;63119;51.788;8.824;2023-04-01T19:01:04;2.55;;;1.42;;
74612;SDS011;63119;51.788;8.824;2023-04-01T19:06:41;2.63;;;1.00;;
74612;SDS011;63119;51.788;8.824;2023-04-01T19:09:17;1.65;;;1.10;;
74612;SDS011;63119;51.788;8.824;2023-04-01T19:12:01;2.10;;;1.33;;
74612;SDS011;63119;51.788;8.824;2023-04-01T19:14:51;2.30;;;1.52;;
74612;SDS011;63119;51.788;8.824;2023-04-01T19:26:17;3.10;;;1.50;;
74612;SDS011;63119;51.788;8.824;2023-04-01T19:29:03;2.22;;;1.50;;
74612;SDS011;63119;51.788;8.824;2023-04-01T19:31:50;2.30;;;1.40;;
74612;SDS011;63119;51.788;8.824;2023-04-01T19:34:39;2.83;;;1.45;;
74612;SDS011;63119;51.788;8.824;2023-04-01T19:37:50;1.67;;;1.10;;
74612;SDS011;63119;51.788;8.824;2023-04-01T19:40:42;2.05;;;1.42;;
74612;SDS011;63119;51.788;8.824;2023-04-01T19:52:24;2.55;;;1.30;;
74612;SDS011;63119;51.788;8.824;2023-04-01T19:55:06;2.13;;;1.27;;
74612;SDS011;63119;51.788;8.824;2023-04-01T20:00:44;1.88;;;1.23;;
74612;SDS011;63119;51.788;8.824;2023-04-01T20:14:09;1.65;;;1.13;;
74612;SDS011;63119;51.788;8.824;2023-04-01T20:16:48;1.52;;;1.13;;
74612;SDS011;63119;51.788;8.824;2023-04-01T20:19:24;2.22;;;1.40;;
74612;SDS011;63119;51.788;8.824;2023-04-01T20:22:03;2.20;;;1.27;;
74612;SDS011;63119;51.788;8.824;2023-04-01T20:24:37;2.20;;;1.40;;
74612;SDS011;63119;51.788;8.824;2023-04-01T20:27:10;2.22;;;1.38;;
74612;SDS011;63119;51.788;8.824;2023-04-01T20:29:47;2.83;;;1.40;;
74612;SDS011;63119;51.788;8.824;2023-04-01T20:35:25;2.10;;;1.40;;
74612;SDS011;63119;51.788;8.824;2023-04-01T20:40:37;2.25;;;1.48;;
74612;SDS011;63119;51.788;8.824;2023-04-01T20:43:16;2.00;;;1.20;;
74612;SDS011;63119;51.788;8.824;2023-04-01T20:45:48;2.38;;;1.35;;
74612;SDS011;63119;51.788;8.824;2023-04-01T20:53:50;2.00;;;1.02;;
74612;SDS011;63119;51.788;8.824;2023-04-01T21:07:31;1.63;;;1.20;;
74612;SDS011;63119;51.788;8.824;2023-04-01T21:10:12;2.45;;;1.30;;
74612;SDS011;63119;51.788;8.824;2023-04-01T21:13:15;1.80;;;1.17;;
74612;SDS011;63119;51.788;8.824;2023-04-01T21:18:49;1.45;;;1.00;;
74612;SDS011;63119;51.788;8.824;2023-04-01T21:30:11;2.13;;;1.10;;
74612;SDS011;63119;51.788;8.824;2023-04-01T21:35:44;1.40;;;1.00;;
74612;SDS011;63119;51.788;8.824;2023-04-01T21:49:43;2.20;;;1.40;;
74612;SDS011;63119;51.788;8.824;2023-04-01T21:55:07;2.35;;;1.58;;
74612;SDS011;63119;51.788;8.824;2023-04-01T22:01:18;3.35;;;1.55;;
74612;SDS011;63119;51.788;8.824;2023-04-01T22:04:08;2.78;;;1.67;;
74612;SDS011;63119;51.788;8.824;2023-04-01T22:18:25;3.28;;;1.98;;
74612;SDS011;63119;51.788;8.824;2023-04-01T22:21:04;4.60;;;2.10;;
74612;SDS011;63119;51.788;8.824;2023-04-01T22:32:11;2.80;;;2.08;;
74612;SDS011;63119;51.788;8.824;2023-04-01T22:34:49;4.28;;;2.22;;
74612;SDS011;63119;51.788;8.824;2023-04-01T22:37:33;4.15;;;2.53;;
74612;SDS011;63119;51.788;8.824;2023-04-01T22:42:59;3.33;;;2.17;;
74612;SDS011;63119;51.788;8.824;2023-04-01T22:45:45;3.40;;;1.83;;
74612;SDS011;63119;51.788;8.824;2023-04-01T22:48:32;4.53;;;2.15;;
74612;SDS011;63119;51.788;8.824;2023-04-01T22:51:15;2.97;;;2.20;;
74612;SDS011;63119;51.788;8.824;2023-04-01T22:53:48;3.53;;;2.25;;
74612;SDS011;63119;51.788;8.824;2023-04-01T22:56:30;4.38;;;2.72;;
74612;SDS011;63119;51.788;8.824;2023-04-01T22:59:16;6.13;;;2.65;;
74612;SDS011;63119;51.788;8.824;2023-04-01T23:01:48;4.30;;;2.58;;
74612;SDS011;63119;51.788;8.824;2023-04-01T23:04:33;4.05;;;2.63;;
74612;SDS011;63119;51.788;8.824;2023-04-01T23:07:05;4.65;;;3.15;;
74612;SDS011;63119;51.788;8.824;2023-04-01T23:09:45;4.82;;;3.08;;
74612;SDS011;63119;51.788;8.824;2023-04-01T23:12:15;4.50;;;3.58;;
74612;SDS011;63119;51.788;8.824;2023-04-01T23:14:47;3.95;;;3.10;;
74612;SDS011;63119;51.788;8.824;2023-04-01T23:17:36;6.43;;;4.22;;
74612;SDS011;63119;51.788;8.824;2023-04-01T23:20:23;5.43;;;3.58;;
74612;SDS011;63119;51.788;8.824;2023-04-01T23:26:06;4.60;;;3.08;;
74612;SDS011;63119;51.788;8.824;2023-04-01T23:28:46;4.22;;;2.33;;
74612;SDS011;63119;51.788;8.824;2023-04-01T23:31:34;3.05;;;2.50;;
74612;SDS011;63119;51.788;8.824;2023-04-01T23:36:51;4.18;;;2.50;;
74612;SDS011;63119;51.788;8.824;2023-04-01T23:39:28;3.95;;;2.70;;
74612;SDS011;63119;51.788;8.824;2023-04-01T23:41:58;4.90;;;2.78;;
74612;SDS011;63119;51.788;8.824;2023-04-01T23:44:27;3.35;;;2.42;;
74612;SDS011;63119;51.788;8.824;2023-04-01T23:46:54;3.65;;;2.67;;
74612;SDS011;63119;51.788;8.824;2023-04-01T23:49:25;5.03;;;2.58;;
74612;SDS011;63119;51.788;8.824;2023-04-01T23:51:58;3.40;;;2.38;;
74612;SDS011;63119;51.788;8.824;2023-04-01T23:54:29;3.53;;;2.33;;
74612;SDS011;63119;51.788;8.824;2023-04-01T23:56:59;3.80;;;2.17;;
74612;SDS011;63119;51.788;8.824;2023-04-01T23:59:32;2.88;;;1.98;;
